sensor_id;sensor_type;location;lat;lon;timestamp;temperature;humidity
44817;DHT22;30529;53.570;9.964;2023-06-22T00:02:19;19.80;99.90
44817;DHT22;30529;53.570;9.964;2023-06-22T00:06:05;19.70;99.90
44817;DHT22;30529;53.570;9.964;2023-06-22T00:09:17;19.70;99.90
44817;DHT22;30529;53.570;9.964;2023-06-22T00:54:10;20.00;99.90
44817;DHT22;30529;53.570;9.964;2023-06-22T00:57:34;20.00;99.90
44817;DHT22;30529;53.570;9.964;2023-06-22T01:04:24;20.00;99.90
44817;DHT22;30529;53.570;9.964;2023-06-22T01:12:46;19.90;99.90
44817;DHT22;30529;53.570;9.964;2023-06-22T01:30:52;19.70;99.90
44817;DHT22;30529;53.570;9.964;2023-06-22T01:38:29;19.40;99.90
44817;DHT22;30529;53.570;9.964;2023-06-22T01:41:57;19.40;99.90
44817;DHT22;30529;53.570;9.964;2023-06-22T02:00:25;19.30;99.90
44817;DHT22;30529;53.570;9.964;2023-06-22T02:03:53;19.30;99.90
44817;DHT22;30529;53.570;9.964;2023-06-22T02:14:29;19.10;99.90
44817;DHT22;30529;53.570;9.964;2023-06-22T02:17:20;19.20;99.90
44817;DHT22;30529;53.570;9.964;2023-06-22T02:20:19;19.20;99.90
44817;DHT22;30529;53.570;9.964;2023-06-22T02:23:09;19.20;99.90
44817;DHT22;30529;53.570;9.964;2023-06-22T02:27:08;19.10;99.90
44817;DHT22;30529;53.570;9.964;2023-06-22T02:29:48;19.10;99.90
44817;DHT22;30529;53.570;9.964;2023-06-22T02:32:39;19.00;99.90
44817;DHT22;30529;53.570;9.964;2023-06-22T02:41:01;19.00;99.90
44817;DHT22;30529;53.570;9.964;2023-06-22T02:43:00;18.90;99.90
44817;DHT22;30529;53.570;9.964;2023-06-22T02:45:32;18.70;99.90
44817;DHT22;30529;53.570;9.964;2023-06-22T02:48:00;18.60;99.90
44817;DHT22;30529;53.570;9.964;2023-06-22T02:50:31;18.50;99.90
44817;DHT22;30529;53.570;9.964;2023-06-22T02:53:11;18.50;99.90
44817;DHT22;30529;53.570;9.964;2023-06-22T03:33:08;18.50;99.90
44817;DHT22;30529;53.570;9.964;2023-06-22T03:36:15;18.40;99.90
44817;DHT22;30529;53.570;9.964;2023-06-22T03:48:13;18.80;99.90
44817;DHT22;30529;53.570;9.964;2023-06-22T04:20:47;19.50;99.90
44817;DHT22;30529;53.570;9.964;2023-06-22T05:06:19;20.30;99.90
44817;DHT22;30529;53.570;9.964;2023-06-22T05:10:14;20.50;99.90
44817;DHT22;30529;53.570;9.964;2023-06-22T05:24:26;21.10;99.90
44817;DHT22;30529;53.570;9.964;2023-06-22T05:41:38;21.90;99.90
44817;DHT22;30529;53.570;9.964;2023-06-22T05:44:36;21.90;99.90
44817;DHT22;30529;53.570;9.964;2023-06-22T05:48:02;22.30;99.90
44817;DHT22;30529;53.570;9.964;2023-06-22T05:50:39;22.50;99.90
44817;DHT22;30529;53.570;9.964;2023-06-22T05:57:21;22.50;99.90
44817;DHT22;30529;53.570;9.964;2023-06-22T06:04:05;22.90;99.90
44817;DHT22;30529;53.570;9.964;2023-06-22T06:24:30;23.10;99.90
44817;DHT22;30529;53.570;9.964;2023-06-22T06:27:37;23.50;99.90
44817;DHT22;30529;53.570;9.964;2023-06-22T06:30:09;23.60;99.90
44817;DHT22;30529;53.570;9.964;2023-06-22T06:36:22;23.50;99.90
44817;DHT22;30529;53.570;9.964;2023-06-22T06:39:24;23.40;99.90
44817;DHT22;30529;53.570;9.964;2023-06-22T06:42:14;23.10;99.90
44817;DHT22;30529;53.570;9.964;2023-06-22T06:45:16;22.90;99.90
44817;DHT22;30529;53.570;9.964;2023-06-22T06:48:34;22.60;99.90
44817;DHT22;30529;53.570;9.964;2023-06-22T06:55:17;22.40;99.90
44817;DHT22;30529;53.570;9.964;2023-06-22T07:06:46;22.00;99.90
44817;DHT22;30529;53.570;9.964;2023-06-22T07:09:19;22.00;99.90
44817;DHT22;30529;53.570;9.964;2023-06-22T07:24:09;22.30;99.90
44817;DHT22;30529;53.570;9.964;2023-06-22T07:26:44;22.50;99.90
44817;DHT22;30529;53.570;9.964;2023-06-22T07:29:12;22.60;99.90
44817;DHT22;30529;53.570;9.964;2023-06-22T07:31:50;22.80;99.90
44817;DHT22;30529;53.570;9.964;2023-06-22T07:54:42;24.40;99.90
44817;DHT22;30529;53.570;9.964;2023-06-22T07:57:12;24.20;99.90
44817;DHT22;30529;53.570;9.964;2023-06-22T07:59:38;24.20;99.90
44817;DHT22;30529;53.570;9.964;2023-06-22T08:02:05;24.20;99.90
44817;DHT22;30529;53.570;9.964;2023-06-22T08:04:31;24.30;99.90
44817;DHT22;30529;53.570;9.964;2023-06-22T08:06:59;24.40;99.90
44817;DHT22;30529;53.570;9.964;2023-06-22T08:09:45;24.40;99.90
44817;DHT22;30529;53.570;9.964;2023-06-22T08:12:15;24.30;99.90
44817;DHT22;30529;53.570;9.964;2023-06-22T08:14:42;24.40;99.90
44817;DHT22;30529;53.570;9.964;2023-06-22T08:17:12;24.30;99.90
44817;DHT22;30529;53.570;9.964;2023-06-22T08:22:45;24.00;99.90
44817;DHT22;30529;53.570;9.964;2023-06-22T08:25:49;24.10;99.90
44817;DHT22;30529;53.570;9.964;2023-06-22T08:28:23;24.20;99.90
44817;DHT22;30529;53.570;9.964;2023-06-22T08:30:49;24.10;99.90
44817;DHT22;30529;53.570;9.964;2023-06-22T08:33:15;24.10;99.90
44817;DHT22;30529;53.570;9.964;2023-06-22T08:35:41;24.20;99.90
44817;DHT22;30529;53.570;9.964;2023-06-22T08:38:07;24.20;99.90
44817;DHT22;30529;53.570;9.964;2023-06-22T08:40:34;24.10;99.90
44817;DHT22;30529;53.570;9.964;2023-06-22T08:43:00;23.90;99.90
44817;DHT22;30529;53.570;9.964;2023-06-22T08:45:26;23.80;99.90
44817;DHT22;30529;53.570;9.964;2023-06-22T08:47:52;23.70;99.90
44817;DHT22;30529;53.570;9.964;2023-06-22T08:50:18;23.90;99.90
44817;DHT22;30529;53.570;9.964;2023-06-22T08:52:45;24.00;99.90
44817;DHT22;30529;53.570;9.964;2023-06-22T08:55:11;24.10;99.90
44817;DHT22;30529;53.570;9.964;2023-06-22T08:57:37;24.20;99.90
44817;DHT22;30529;53.570;9.964;2023-06-22T09:00:08;24.30;99.90
44817;DHT22;30529;53.570;9.964;2023-06-22T09:02:43;24.30;99.90
44817;DHT22;30529;53.570;9.964;2023-06-22T09:05:09;24.20;99.90
44817;DHT22;30529;53.570;9.964;2023-06-22T09:07:35;24.10;99.90
44817;DHT22;30529;53.570;9.964;2023-06-22T09:10:02;24.00;99.90
44817;DHT22;30529;53.570;9.964;2023-06-22T09:12:30;23.90;99.90
44817;DHT22;30529;53.570;9.964;2023-06-22T09:14:56;23.90;99.90
44817;DHT22;30529;53.570;9.964;2023-06-22T09:17:22;23.80;99.90
44817;DHT22;30529;53.570;9.964;2023-06-22T09:19:51;23.90;99.90
44817;DHT22;30529;53.570;9.964;2023-06-22T09:22:17;23.80;99.90
44817;DHT22;30529;53.570;9.964;2023-06-22T09:24:43;23.80;99.90
44817;DHT22;30529;53.570;9.964;2023-06-22T09:27:09;23.70;99.90
44817;DHT22;30529;53.570;9.964;2023-06-22T09:29:35;23.80;99.90
44817;DHT22;30529;53.570;9.964;2023-06-22T09:32:02;23.80;99.90
44817;DHT22;30529;53.570;9.964;2023-06-22T09:34:29;23.90;99.90
44817;DHT22;30529;53.570;9.964;2023-06-22T09:36:57;23.80;99.90
44817;DHT22;30529;53.570;9.964;2023-06-22T09:39:26;23.80;99.90
44817;DHT22;30529;53.570;9.964;2023-06-22T09:41:52;23.70;99.90
44817;DHT22;30529;53.570;9.964;2023-06-22T09:44:19;23.80;99.90
44817;DHT22;30529;53.570;9.964;2023-06-22T09:46:45;23.80;99.90
44817;DHT22;30529;53.570;9.964;2023-06-22T09:49:11;23.80;99.90
44817;DHT22;30529;53.570;9.964;2023-06-22T09:51:37;23.90;99.90
44817;DHT22;30529;53.570;9.964;2023-06-22T09:54:03;23.90;99.90
44817;DHT22;30529;53.570;9.964;2023-06-22T09:56:29;23.90;99.90
44817;DHT22;30529;53.570;9.964;2023-06-22T09:58:56;23.90;99.90
44817;DHT22;30529;53.570;9.964;2023-06-22T10:01:24;23.90;99.90
44817;DHT22;30529;53.570;9.964;2023-06-22T10:03:56;24.00;99.90
44817;DHT22;30529;53.570;9.964;2023-06-22T10:06:22;24.00;99.90
44817;DHT22;30529;53.570;9.964;2023-06-22T10:08:50;24.00;99.90
44817;DHT22;30529;53.570;9.964;2023-06-22T10:11:16;24.20;99.90
44817;DHT22;30529;53.570;9.964;2023-06-22T10:13:43;24.30;99.90
44817;DHT22;30529;53.570;9.964;2023-06-22T10:16:09;24.40;99.90
44817;DHT22;30529;53.570;9.964;2023-06-22T10:18:35;24.40;99.90
44817;DHT22;30529;53.570;9.964;2023-06-22T10:21:01;24.50;99.90
44817;DHT22;30529;53.570;9.964;2023-06-22T10:23:27;24.50;99.90
44817;DHT22;30529;53.570;9.964;2023-06-22T10:25:53;24.50;99.90
44817;DHT22;30529;53.570;9.964;2023-06-22T10:28:19;24.50;99.90
44817;DHT22;30529;53.570;9.964;2023-06-22T10:30:45;24.50;99.90
44817;DHT22;30529;53.570;9.964;2023-06-22T10:33:12;24.50;99.90
44817;DHT22;30529;53.570;9.964;2023-06-22T10:35:44;24.50;99.90
44817;DHT22;30529;53.570;9.964;2023-06-22T10:38:10;24.60;99.90
44817;DHT22;30529;53.570;9.964;2023-06-22T10:40:36;24.60;99.90
44817;DHT22;30529;53.570;9.964;2023-06-22T10:43:02;24.70;99.90
44817;DHT22;30529;53.570;9.964;2023-06-22T10:45:28;24.80;99.90
44817;DHT22;30529;53.570;9.964;2023-06-22T10:47:54;24.80;99.90
44817;DHT22;30529;53.570;9.964;2023-06-22T10:50:20;24.90;99.90
44817;DHT22;30529;53.570;9.964;2023-06-22T10:52:46;24.80;99.90
44817;DHT22;30529;53.570;9.964;2023-06-22T10:55:12;24.80;99.90
44817;DHT22;30529;53.570;9.964;2023-06-22T10:57:38;24.80;99.90
44817;DHT22;30529;53.570;9.964;2023-06-22T11:00:07;24.90;99.90
44817;DHT22;30529;53.570;9.964;2023-06-22T11:02:34;25.00;99.90
44817;DHT22;30529;53.570;9.964;2023-06-22T11:05:00;25.10;99.90
44817;DHT22;30529;53.570;9.964;2023-06-22T11:07:26;25.20;99.90
44817;DHT22;30529;53.570;9.964;2023-06-22T11:09:54;25.30;99.90
44817;DHT22;30529;53.570;9.964;2023-06-22T11:12:20;25.40;99.90
44817;DHT22;30529;53.570;9.964;2023-06-22T11:15:11;25.40;99.90
44817;DHT22;30529;53.570;9.964;2023-06-22T11:17:37;25.40;99.90
44817;DHT22;30529;53.570;9.964;2023-06-22T11:20:03;25.40;99.90
44817;DHT22;30529;53.570;9.964;2023-06-22T11:23:09;25.40;99.90
44817;DHT22;30529;53.570;9.964;2023-06-22T11:28:49;25.40;99.90
44817;DHT22;30529;53.570;9.964;2023-06-22T11:31:15;25.40;99.90
44817;DHT22;30529;53.570;9.964;2023-06-22T11:33:41;25.50;99.90
44817;DHT22;30529;53.570;9.964;2023-06-22T11:36:07;25.60;99.90
44817;DHT22;30529;53.570;9.964;2023-06-22T11:38:33;25.50;99.90
44817;DHT22;30529;53.570;9.964;2023-06-22T11:41:00;25.60;99.90
44817;DHT22;30529;53.570;9.964;2023-06-22T11:43:26;25.80;99.90
44817;DHT22;30529;53.570;9.964;2023-06-22T11:45:52;26.10;99.90
44817;DHT22;30529;53.570;9.964;2023-06-22T11:48:18;26.30;99.90
44817;DHT22;30529;53.570;9.964;2023-06-22T11:50:44;26.60;99.90
44817;DHT22;30529;53.570;9.964;2023-06-22T11:53:10;26.60;99.90
44817;DHT22;30529;53.570;9.964;2023-06-22T11:55:36;26.70;99.90
44817;DHT22;30529;53.570;9.964;2023-06-22T11:58:02;26.60;99.90
44817;DHT22;30529;53.570;9.964;2023-06-22T12:00:30;26.70;99.90
44817;DHT22;30529;53.570;9.964;2023-06-22T12:02:56;26.60;99.90
44817;DHT22;30529;53.570;9.964;2023-06-22T12:05:22;26.80;99.90
44817;DHT22;30529;53.570;9.964;2023-06-22T12:07:49;26.80;99.90
44817;DHT22;30529;53.570;9.964;2023-06-22T12:10:16;26.60;99.90
44817;DHT22;30529;53.570;9.964;2023-06-22T12:12:42;26.60;99.90
44817;DHT22;30529;53.570;9.964;2023-06-22T12:15:11;26.70;99.90
44817;DHT22;30529;53.570;9.964;2023-06-22T12:17:37;26.60;99.90
44817;DHT22;30529;53.570;9.964;2023-06-22T12:20:03;26.50;99.90
44817;DHT22;30529;53.570;9.964;2023-06-22T12:22:32;26.50;99.90
44817;DHT22;30529;53.570;9.964;2023-06-22T12:24:58;26.50;99.90
44817;DHT22;30529;53.570;9.964;2023-06-22T12:27:25;26.50;99.90
44817;DHT22;30529;53.570;9.964;2023-06-22T12:29:51;26.60;99.90
44817;DHT22;30529;53.570;9.964;2023-06-22T12:32:17;26.60;99.90
44817;DHT22;30529;53.570;9.964;2023-06-22T12:34:44;26.80;99.90
44817;DHT22;30529;53.570;9.964;2023-06-22T12:37:10;27.10;99.90
44817;DHT22;30529;53.570;9.964;2023-06-22T12:39:36;27.30;99.90
44817;DHT22;30529;53.570;9.964;2023-06-22T12:42:02;27.20;99.90
44817;DHT22;30529;53.570;9.964;2023-06-22T12:44:28;27.10;99.90
44817;DHT22;30529;53.570;9.964;2023-06-22T12:46:55;26.90;99.90
44817;DHT22;30529;53.570;9.964;2023-06-22T12:49:21;26.90;99.90
44817;DHT22;30529;53.570;9.964;2023-06-22T12:51:47;26.90;99.90
44817;DHT22;30529;53.570;9.964;2023-06-22T12:54:13;27.00;99.90
44817;DHT22;30529;53.570;9.964;2023-06-22T12:56:39;27.10;99.90
44817;DHT22;30529;53.570;9.964;2023-06-22T12:59:05;26.90;99.90
44817;DHT22;30529;53.570;9.964;2023-06-22T13:01:32;26.70;99.90
44817;DHT22;30529;53.570;9.964;2023-06-22T13:03:58;26.80;99.90
44817;DHT22;30529;53.570;9.964;2023-06-22T13:06:25;26.90;99.90
44817;DHT22;30529;53.570;9.964;2023-06-22T13:08:51;26.90;99.90
44817;DHT22;30529;53.570;9.964;2023-06-22T13:11:17;27.10;99.90
44817;DHT22;30529;53.570;9.964;2023-06-22T13:13:45;27.20;99.90
44817;DHT22;30529;53.570;9.964;2023-06-22T13:16:12;27.10;99.90
44817;DHT22;30529;53.570;9.964;2023-06-22T13:18:38;27.10;99.90
44817;DHT22;30529;53.570;9.964;2023-06-22T13:21:04;26.80;99.90
44817;DHT22;30529;53.570;9.964;2023-06-22T13:23:30;26.70;99.90
44817;DHT22;30529;53.570;9.964;2023-06-22T13:25:58;26.60;99.90
44817;DHT22;30529;53.570;9.964;2023-06-22T13:28:24;26.70;99.90
44817;DHT22;30529;53.570;9.964;2023-06-22T13:30:49;26.80;99.90
44817;DHT22;30529;53.570;9.964;2023-06-22T13:33:16;27.00;99.90
44817;DHT22;30529;53.570;9.964;2023-06-22T13:35:42;27.10;99.90
44817;DHT22;30529;53.570;9.964;2023-06-22T13:38:11;27.10;99.90
44817;DHT22;30529;53.570;9.964;2023-06-22T13:40:37;27.10;99.90
44817;DHT22;30529;53.570;9.964;2023-06-22T13:43:04;27.10;99.90
44817;DHT22;30529;53.570;9.964;2023-06-22T13:45:30;27.10;99.90
44817;DHT22;30529;53.570;9.964;2023-06-22T13:47:57;27.30;99.90
44817;DHT22;30529;53.570;9.964;2023-06-22T13:50:23;27.40;99.90
44817;DHT22;30529;53.570;9.964;2023-06-22T13:52:51;27.40;99.90
44817;DHT22;30529;53.570;9.964;2023-06-22T13:55:17;27.30;99.90
44817;DHT22;30529;53.570;9.964;2023-06-22T13:57:45;27.30;99.90
44817;DHT22;30529;53.570;9.964;2023-06-22T14:00:12;27.30;99.90
44817;DHT22;30529;53.570;9.964;2023-06-22T14:02:46;27.50;99.90
44817;DHT22;30529;53.570;9.964;2023-06-22T14:05:14;27.50;99.90
44817;DHT22;30529;53.570;9.964;2023-06-22T14:07:40;27.50;99.90
44817;DHT22;30529;53.570;9.964;2023-06-22T14:10:06;27.70;99.90
44817;DHT22;30529;53.570;9.964;2023-06-22T14:12:35;27.60;99.90
44817;DHT22;30529;53.570;9.964;2023-06-22T14:15:04;27.70;99.90
44817;DHT22;30529;53.570;9.964;2023-06-22T14:17:36;27.60;99.90
44817;DHT22;30529;53.570;9.964;2023-06-22T14:20:02;27.60;99.90
44817;DHT22;30529;53.570;9.964;2023-06-22T14:22:28;27.70;99.90
44817;DHT22;30529;53.570;9.964;2023-06-22T14:24:55;27.70;99.90
44817;DHT22;30529;53.570;9.964;2023-06-22T14:27:24;27.70;99.90
44817;DHT22;30529;53.570;9.964;2023-06-22T14:29:50;27.70;99.90
44817;DHT22;30529;53.570;9.964;2023-06-22T14:32:16;27.70;99.90
44817;DHT22;30529;53.570;9.964;2023-06-22T14:34:42;27.90;99.90
44817;DHT22;30529;53.570;9.964;2023-06-22T14:37:09;28.00;99.90
44817;DHT22;30529;53.570;9.964;2023-06-22T14:39:41;27.80;99.90
44817;DHT22;30529;53.570;9.964;2023-06-22T14:42:08;27.50;99.90
44817;DHT22;30529;53.570;9.964;2023-06-22T14:44:34;27.30;99.90
44817;DHT22;30529;53.570;9.964;2023-06-22T14:47:00;27.00;99.90
44817;DHT22;30529;53.570;9.964;2023-06-22T14:49:27;26.80;99.90
44817;DHT22;30529;53.570;9.964;2023-06-22T14:51:53;26.50;99.90
44817;DHT22;30529;53.570;9.964;2023-06-22T14:54:19;26.50;99.90
44817;DHT22;30529;53.570;9.964;2023-06-22T14:56:45;26.40;99.90
44817;DHT22;30529;53.570;9.964;2023-06-22T14:59:12;26.40;99.90
44817;DHT22;30529;53.570;9.964;2023-06-22T15:01:38;26.40;99.90
44817;DHT22;30529;53.570;9.964;2023-06-22T15:04:04;26.30;99.90
44817;DHT22;30529;53.570;9.964;2023-06-22T15:06:30;26.30;99.90
44817;DHT22;30529;53.570;9.964;2023-06-22T15:08:57;26.30;99.90
44817;DHT22;30529;53.570;9.964;2023-06-22T15:11:23;26.20;99.90
44817;DHT22;30529;53.570;9.964;2023-06-22T15:13:49;26.20;99.90
44817;DHT22;30529;53.570;9.964;2023-06-22T15:16:14;26.20;99.90
44817;DHT22;30529;53.570;9.964;2023-06-22T15:18:41;26.20;99.90
44817;DHT22;30529;53.570;9.964;2023-06-22T15:21:07;26.10;99.90
44817;DHT22;30529;53.570;9.964;2023-06-22T15:23:33;26.00;99.90
44817;DHT22;30529;53.570;9.964;2023-06-22T15:26:02;25.90;99.90
44817;DHT22;30529;53.570;9.964;2023-06-22T15:28:30;25.70;99.90
44817;DHT22;30529;53.570;9.964;2023-06-22T15:30:58;25.60;99.90
44817;DHT22;30529;53.570;9.964;2023-06-22T15:33:24;25.60;99.90
44817;DHT22;30529;53.570;9.964;2023-06-22T15:35:51;25.50;99.90
44817;DHT22;30529;53.570;9.964;2023-06-22T15:38:18;25.50;99.90
44817;DHT22;30529;53.570;9.964;2023-06-22T15:40:44;25.60;99.90
44817;DHT22;30529;53.570;9.964;2023-06-22T15:43:11;25.60;99.90
44817;DHT22;30529;53.570;9.964;2023-06-22T15:45:37;25.50;99.90
44817;DHT22;30529;53.570;9.964;2023-06-22T15:48:03;25.60;99.90
44817;DHT22;30529;53.570;9.964;2023-06-22T15:50:29;25.50;99.90
44817;DHT22;30529;53.570;9.964;2023-06-22T15:52:55;25.50;99.90
44817;DHT22;30529;53.570;9.964;2023-06-22T15:55:21;25.50;99.90
44817;DHT22;30529;53.570;9.964;2023-06-22T15:57:47;25.50;99.90
44817;DHT22;30529;53.570;9.964;2023-06-22T16:00:15;25.40;99.90
44817;DHT22;30529;53.570;9.964;2023-06-22T16:02:43;25.40;99.90
44817;DHT22;30529;53.570;9.964;2023-06-22T16:05:09;25.30;99.90
44817;DHT22;30529;53.570;9.964;2023-06-22T16:07:39;25.30;99.90
44817;DHT22;30529;53.570;9.964;2023-06-22T16:10:06;25.30;99.90
44817;DHT22;30529;53.570;9.964;2023-06-22T16:12:33;25.30;99.90
44817;DHT22;30529;53.570;9.964;2023-06-22T16:15:00;25.20;99.90
44817;DHT22;30529;53.570;9.964;2023-06-22T16:17:26;25.20;99.90
44817;DHT22;30529;53.570;9.964;2023-06-22T16:19:53;25.10;99.90
44817;DHT22;30529;53.570;9.964;2023-06-22T16:22:21;25.10;99.90
44817;DHT22;30529;53.570;9.964;2023-06-22T16:24:48;25.10;99.90
44817;DHT22;30529;53.570;9.964;2023-06-22T16:27:14;25.20;99.90
44817;DHT22;30529;53.570;9.964;2023-06-22T16:29:40;25.20;99.90
44817;DHT22;30529;53.570;9.964;2023-06-22T16:32:07;25.20;99.90
44817;DHT22;30529;53.570;9.964;2023-06-22T16:34:33;25.20;99.90
44817;DHT22;30529;53.570;9.964;2023-06-22T16:36:59;25.10;99.90
44817;DHT22;30529;53.570;9.964;2023-06-22T16:39:25;25.00;99.90
44817;DHT22;30529;53.570;9.964;2023-06-22T16:41:52;25.00;99.90
44817;DHT22;30529;53.570;9.964;2023-06-22T16:44:18;24.90;99.90
44817;DHT22;30529;53.570;9.964;2023-06-22T16:46:44;25.10;99.90
44817;DHT22;30529;53.570;9.964;2023-06-22T16:49:10;25.20;99.90
44817;DHT22;30529;53.570;9.964;2023-06-22T16:51:36;25.30;99.90
44817;DHT22;30529;53.570;9.964;2023-06-22T16:54:03;25.30;99.90
44817;DHT22;30529;53.570;9.964;2023-06-22T16:56:29;25.30;99.90
44817;DHT22;30529;53.570;9.964;2023-06-22T16:58:57;25.10;99.90
44817;DHT22;30529;53.570;9.964;2023-06-22T17:01:24;25.10;99.90
44817;DHT22;30529;53.570;9.964;2023-06-22T17:04:09;25.00;99.90
44817;DHT22;30529;53.570;9.964;2023-06-22T17:06:37;25.00;99.90
44817;DHT22;30529;53.570;9.964;2023-06-22T17:09:05;25.00;99.90
44817;DHT22;30529;53.570;9.964;2023-06-22T17:11:31;24.80;99.90
44817;DHT22;30529;53.570;9.964;2023-06-22T17:13:58;24.70;99.90
44817;DHT22;30529;53.570;9.964;2023-06-22T17:16:24;24.70;99.90
44817;DHT22;30529;53.570;9.964;2023-06-22T17:18:52;24.40;99.90
44817;DHT22;30529;53.570;9.964;2023-06-22T17:21:23;24.40;99.90
44817;DHT22;30529;53.570;9.964;2023-06-22T17:23:50;24.30;99.90
44817;DHT22;30529;53.570;9.964;2023-06-22T17:26:16;24.20;99.90
44817;DHT22;30529;53.570;9.964;2023-06-22T17:28:50;24.10;99.90
44817;DHT22;30529;53.570;9.964;2023-06-22T17:31:17;24.00;99.90
44817;DHT22;30529;53.570;9.964;2023-06-22T17:33:43;23.90;99.90
44817;DHT22;30529;53.570;9.964;2023-06-22T17:36:13;23.80;99.90
44817;DHT22;30529;53.570;9.964;2023-06-22T17:38:39;23.70;99.90
44817;DHT22;30529;53.570;9.964;2023-06-22T17:41:05;23.70;99.90
44817;DHT22;30529;53.570;9.964;2023-06-22T17:43:32;23.50;99.90
44817;DHT22;30529;53.570;9.964;2023-06-22T17:45:58;23.50;99.90
44817;DHT22;30529;53.570;9.964;2023-06-22T17:48:25;23.50;99.90
44817;DHT22;30529;53.570;9.964;2023-06-22T17:50:52;23.50;99.90
44817;DHT22;30529;53.570;9.964;2023-06-22T17:53:18;23.40;99.90
44817;DHT22;30529;53.570;9.964;2023-06-22T17:55:44;23.30;99.90
44817;DHT22;30529;53.570;9.964;2023-06-22T17:58:09;23.30;99.90
44817;DHT22;30529;53.570;9.964;2023-06-22T18:00:35;23.30;99.90
44817;DHT22;30529;53.570;9.964;2023-06-22T18:03:05;23.20;99.90
44817;DHT22;30529;53.570;9.964;2023-06-22T18:05:33;23.20;99.90
44817;DHT22;30529;53.570;9.964;2023-06-22T18:08:04;23.10;99.90
44817;DHT22;30529;53.570;9.964;2023-06-22T18:10:32;23.10;99.90
44817;DHT22;30529;53.570;9.964;2023-06-22T18:12:59;22.90;99.90
44817;DHT22;30529;53.570;9.964;2023-06-22T18:15:27;22.90;99.90
44817;DHT22;30529;53.570;9.964;2023-06-22T18:17:54;22.90;99.90
44817;DHT22;30529;53.570;9.964;2023-06-22T18:20:20;22.80;99.90
44817;DHT22;30529;53.570;9.964;2023-06-22T18:22:50;22.80;99.90
44817;DHT22;30529;53.570;9.964;2023-06-22T18:25:18;22.80;99.90
44817;DHT22;30529;53.570;9.964;2023-06-22T18:27:46;22.80;99.90
44817;DHT22;30529;53.570;9.964;2023-06-22T18:30:19;22.80;99.90
44817;DHT22;30529;53.570;9.964;2023-06-22T18:32:48;22.80;99.90
44817;DHT22;30529;53.570;9.964;2023-06-22T18:35:15;22.70;99.90
44817;DHT22;30529;53.570;9.964;2023-06-22T18:37:44;22.70;99.90
44817;DHT22;30529;53.570;9.964;2023-06-22T18:40:13;22.70;99.90
44817;DHT22;30529;53.570;9.964;2023-06-22T18:42:46;22.60;99.90
44817;DHT22;30529;53.570;9.964;2023-06-22T18:45:25;22.70;99.90
44817;DHT22;30529;53.570;9.964;2023-06-22T18:53:04;22.50;99.90
44817;DHT22;30529;53.570;9.964;2023-06-22T18:55:31;22.50;99.90
44817;DHT22;30529;53.570;9.964;2023-06-22T18:58:23;22.40;99.90
44817;DHT22;30529;53.570;9.964;2023-06-22T19:01:22;22.40;99.90
44817;DHT22;30529;53.570;9.964;2023-06-22T19:04:14;22.40;99.90
44817;DHT22;30529;53.570;9.964;2023-06-22T19:06:56;22.30;99.90
44817;DHT22;30529;53.570;9.964;2023-06-22T19:09:22;22.30;99.90
44817;DHT22;30529;53.570;9.964;2023-06-22T19:12:18;22.30;99.90
44817;DHT22;30529;53.570;9.964;2023-06-22T19:15:13;22.30;99.90
44817;DHT22;30529;53.570;9.964;2023-06-22T19:21:29;22.30;99.90
44817;DHT22;30529;53.570;9.964;2023-06-22T19:23:57;22.30;99.90
44817;DHT22;30529;53.570;9.964;2023-06-22T19:26:24;22.20;99.90
44817;DHT22;30529;53.570;9.964;2023-06-22T19:36:21;22.20;99.90
44817;DHT22;30529;53.570;9.964;2023-06-22T19:49:20;22.10;99.90
44817;DHT22;30529;53.570;9.964;2023-06-22T19:51:46;22.20;99.90
44817;DHT22;30529;53.570;9.964;2023-06-22T19:54:12;22.10;99.90
44817;DHT22;30529;53.570;9.964;2023-06-22T19:56:41;22.10;99.90
44817;DHT22;30529;53.570;9.964;2023-06-22T19:59:15;22.10;99.90
44817;DHT22;30529;53.570;9.964;2023-06-22T20:01:42;22.20;99.90
44817;DHT22;30529;53.570;9.964;2023-06-22T20:04:11;22.20;99.90
44817;DHT22;30529;53.570;9.964;2023-06-22T20:06:37;22.10;99.90
44817;DHT22;30529;53.570;9.964;2023-06-22T20:09:05;22.10;99.90
44817;DHT22;30529;53.570;9.964;2023-06-22T20:11:34;22.10;99.90
44817;DHT22;30529;53.570;9.964;2023-06-22T20:14:00;22.00;99.90
44817;DHT22;30529;53.570;9.964;2023-06-22T20:16:28;22.00;99.90
44817;DHT22;30529;53.570;9.964;2023-06-22T20:19:08;22.00;99.90
44817;DHT22;30529;53.570;9.964;2023-06-22T20:21:38;21.90;99.90
44817;DHT22;30529;53.570;9.964;2023-06-22T20:24:10;21.90;99.90
44817;DHT22;30529;53.570;9.964;2023-06-22T20:26:41;21.80;99.90
44817;DHT22;30529;53.570;9.964;2023-06-22T20:29:48;21.80;99.90
44817;DHT22;30529;53.570;9.964;2023-06-22T20:32:14;21.80;99.90
44817;DHT22;30529;53.570;9.964;2023-06-22T20:34:44;21.80;99.90
44817;DHT22;30529;53.570;9.964;2023-06-22T20:37:12;21.60;99.90
44817;DHT22;30529;53.570;9.964;2023-06-22T20:39:39;21.60;99.90
44817;DHT22;30529;53.570;9.964;2023-06-22T20:42:05;21.60;99.90
44817;DHT22;30529;53.570;9.964;2023-06-22T20:44:35;21.50;99.90
44817;DHT22;30529;53.570;9.964;2023-06-22T20:47:01;21.40;99.90
44817;DHT22;30529;53.570;9.964;2023-06-22T20:49:32;21.10;99.90
44817;DHT22;30529;53.570;9.964;2023-06-22T20:51:58;20.90;99.90
44817;DHT22;30529;53.570;9.964;2023-06-22T20:54:30;20.80;99.90
44817;DHT22;30529;53.570;9.964;2023-06-22T20:57:02;20.80;99.90
44817;DHT22;30529;53.570;9.964;2023-06-22T20:59:28;20.70;99.90
44817;DHT22;30529;53.570;9.964;2023-06-22T21:01:54;20.80;99.90
44817;DHT22;30529;53.570;9.964;2023-06-22T21:04:22;20.70;99.90
44817;DHT22;30529;53.570;9.964;2023-06-22T21:06:48;20.40;99.90
44817;DHT22;30529;53.570;9.964;2023-06-22T21:09:14;20.20;99.90
44817;DHT22;30529;53.570;9.964;2023-06-22T21:11:43;19.60;99.90
44817;DHT22;30529;53.570;9.964;2023-06-22T21:14:09;18.90;99.90
44817;DHT22;30529;53.570;9.964;2023-06-22T21:16:35;18.60;99.90
44817;DHT22;30529;53.570;9.964;2023-06-22T21:19:01;18.10;99.90
44817;DHT22;30529;53.570;9.964;2023-06-22T21:21:27;17.70;99.90
44817;DHT22;30529;53.570;9.964;2023-06-22T21:23:53;17.20;99.90
44817;DHT22;30529;53.570;9.964;2023-06-22T21:26:19;17.10;99.90
44817;DHT22;30529;53.570;9.964;2023-06-22T21:28:45;16.80;99.90
44817;DHT22;30529;53.570;9.964;2023-06-22T21:31:11;16.60;99.90
44817;DHT22;30529;53.570;9.964;2023-06-22T21:33:37;16.50;99.90
44817;DHT22;30529;53.570;9.964;2023-06-22T21:36:03;16.50;99.90
44817;DHT22;30529;53.570;9.964;2023-06-22T21:38:28;16.40;99.90
44817;DHT22;30529;53.570;9.964;2023-06-22T21:40:55;16.50;99.90
44817;DHT22;30529;53.570;9.964;2023-06-22T21:43:21;16.60;99.90
44817;DHT22;30529;53.570;9.964;2023-06-22T21:45:46;16.60;99.90
44817;DHT22;30529;53.570;9.964;2023-06-22T21:48:12;16.90;99.90
44817;DHT22;30529;53.570;9.964;2023-06-22T21:50:38;17.10;99.90